createdAt,value
2019-05-18T00:02:34.795Z,13.40
2019-05-18T00:06:37.916Z,13.50
2019-05-18T00:10:41.380Z,13.70
2019-05-18T00:14:44.465Z,13.70
2019-05-18T00:18:47.591Z,13.50
2019-05-18T00:22:50.678Z,13.40
2019-05-18T00:26:53.681Z,13.40
2019-05-18T00:30:56.699Z,13.30
2019-05-18T00:34:59.710Z,13.10
2019-05-18T00:39:04.532Z,13.20
2019-05-18T00:43:07.537Z,13.40
2019-05-18T00:47:10.537Z,13.50
2019-05-18T00:51:13.604Z,13.50
2019-05-18T00:55:16.626Z,13.30
2019-05-18T00:59:19.649Z,13.10
2019-05-18T01:03:22.660Z,12.90
2019-05-18T01:07:26.560Z,13.00
2019-05-18T01:11:29.561Z,13.10
2019-05-18T01:15:32.611Z,13.20
2019-05-18T01:19:35.604Z,13.00
2019-05-18T01:23:38.623Z,12.80
2019-05-18T01:27:41.624Z,12.90
2019-05-18T01:31:44.635Z,13.00
2019-05-18T01:35:47.640Z,13.10
2019-05-18T01:39:50.654Z,13.20
2019-05-18T01:43:53.656Z,13.10
2019-05-18T01:48:12.277Z,13.20
2019-05-18T01:52:01.658Z,13.20
2019-05-18T01:56:04.747Z,13.30
2019-05-18T02:00:08.618Z,13.30
2019-05-18T02:04:11.692Z,13.20
2019-05-18T02:08:15.940Z,13.20
2019-05-18T02:12:18.995Z,13.20
2019-05-18T02:16:21.994Z,13.20
2019-05-18T02:20:25.001Z,13.20
2019-05-18T02:24:27.999Z,13.20
2019-05-18T02:28:31.003Z,13.20
2019-05-18T02:32:34.114Z,13.20
2019-05-18T02:36:37.227Z,13.20
2019-05-18T02:40:40.244Z,13.30
2019-05-18T02:44:43.284Z,13.30
2019-05-18T02:48:50.098Z,13.30
2019-05-18T02:52:51.327Z,13.20
2019-05-18T02:56:54.419Z,13.20
2019-05-18T03:00:57.443Z,13.20
2019-05-18T03:05:00.616Z,13.20
2019-05-18T03:09:05.088Z,13.10
2019-05-18T03:13:08.391Z,12.50
2019-05-18T03:17:11.416Z,12.10
2019-05-18T03:21:14.412Z,11.90
2019-05-18T03:25:17.514Z,11.90
2019-05-18T03:29:20.543Z,12.20
2019-05-18T03:33:29.023Z,12.50
2019-05-18T03:37:28.444Z,12.60
2019-05-18T03:41:31.451Z,12.70
2019-05-18T03:45:34.456Z,12.90
2019-05-18T03:49:37.469Z,12.80
2019-05-18T03:53:40.475Z,12.90
2019-05-18T03:57:43.719Z,12.90
2019-05-18T04:01:46.724Z,13.00
2019-05-18T04:05:49.750Z,13.10
2019-05-18T04:09:52.863Z,13.20
2019-05-18T04:13:55.865Z,13.40
2019-05-18T04:17:58.875Z,13.40
2019-05-18T04:22:01.891Z,13.50
2019-05-18T04:26:04.902Z,13.30
2019-05-18T04:30:08.315Z,13.40
2019-05-18T04:34:11.320Z,13.40
2019-05-18T04:38:14.330Z,13.40
2019-05-18T04:42:17.337Z,13.30
2019-05-18T04:46:20.346Z,12.90
2019-05-18T04:50:23.377Z,12.70
2019-05-18T04:54:26.381Z,12.70
2019-05-18T04:58:29.387Z,13.00
2019-05-18T05:02:32.467Z,13.20
2019-05-18T05:06:35.461Z,13.20
2019-05-18T05:10:40.368Z,13.30
2019-05-18T05:14:43.364Z,13.50
2019-05-18T05:18:46.396Z,13.80
2019-05-18T05:22:49.419Z,13.70
2019-05-18T05:26:52.466Z,13.60
2019-05-18T05:30:55.475Z,13.50
2019-05-18T05:34:58.479Z,13.70
2019-05-18T05:39:01.491Z,14.00
2019-05-18T05:43:04.605Z,14.20
2019-05-18T05:47:07.628Z,14.50
2019-05-18T05:51:10.726Z,14.70
2019-05-18T05:55:15.027Z,15.20
2019-05-18T05:59:18.032Z,15.80
2019-05-18T06:03:21.132Z,15.90
2019-05-18T06:07:24.688Z,16.10
2019-05-18T06:11:28.719Z,16.00
2019-05-18T06:15:31.782Z,16.00
2019-05-18T06:19:34.781Z,16.40
2019-05-18T06:23:37.817Z,16.50
2019-05-18T06:27:40.884Z,16.90
2019-05-18T06:31:43.960Z,17.10
2019-05-18T06:35:46.963Z,16.70
2019-05-18T06:39:49.978Z,16.80
2019-05-18T06:43:58.450Z,17.10
2019-05-18T06:48:05.372Z,17.20
2019-05-18T06:52:12.715Z,17.20
2019-05-18T06:56:21.399Z,17.20
2019-05-18T07:00:36.035Z,17.40
2019-05-18T07:04:44.708Z,17.30
2019-05-18T07:08:50.880Z,17.50
2019-05-18T07:12:59.687Z,17.60
2019-05-18T07:17:08.224Z,17.60
2019-05-18T07:21:22.034Z,17.90
2019-05-18T07:25:25.505Z,17.70
2019-05-18T07:29:29.634Z,17.60
2019-05-18T07:33:34.494Z,16.90
2019-05-18T07:37:46.654Z,16.90
2019-05-18T07:41:50.248Z,17.10
2019-05-18T07:45:53.251Z,17.90
2019-05-18T07:49:56.290Z,18.90
2019-05-18T07:53:59.285Z,19.40
2019-05-18T07:58:02.881Z,20.10
2019-05-18T08:02:05.979Z,21.00
2019-05-18T08:06:08.989Z,21.90
2019-05-18T08:10:12.691Z,22.20
2019-05-18T08:14:17.146Z,22.10
2019-05-18T08:18:20.251Z,22.50
2019-05-18T08:22:23.273Z,22.50
2019-05-18T08:26:26.298Z,21.80
2019-05-18T08:30:29.312Z,22.10
2019-05-18T08:34:32.319Z,23.00
2019-05-18T08:38:35.319Z,24.20
2019-05-18T08:42:38.336Z,26.20
2019-05-18T08:46:41.343Z,27.30
2019-05-18T08:50:44.347Z,28.40
2019-05-18T08:54:47.376Z,29.10
2019-05-18T08:58:50.376Z,29.30
2019-05-18T09:02:53.388Z,29.70
2019-05-18T09:06:56.404Z,30.20
2019-05-18T09:10:59.499Z,30.80
2019-05-18T09:15:07.425Z,31.60
2019-05-18T09:19:10.523Z,31.60
2019-05-18T09:23:13.577Z,31.80
2019-05-18T09:27:16.581Z,32.20
2019-05-18T09:31:19.587Z,32.80
2019-05-18T09:35:22.599Z,33.20
2019-05-18T09:39:25.738Z,33.40
2019-05-18T09:43:28.747Z,33.10
2019-05-18T09:47:31.752Z,33.00
2019-05-18T09:51:34.761Z,33.20
2019-05-18T09:55:37.762Z,33.30
2019-05-18T09:59:40.814Z,33.80
2019-05-18T10:03:43.900Z,34.30
2019-05-18T10:07:47.026Z,34.70
2019-05-18T10:11:50.028Z,34.70
2019-05-18T10:15:54.949Z,34.70
2019-05-18T10:19:58.043Z,35.00
2019-05-18T10:24:01.053Z,35.60
2019-05-18T10:28:04.081Z,35.10
2019-05-18T10:32:07.079Z,34.20
2019-05-18T10:36:11.803Z,34.50
2019-05-18T10:40:14.987Z,35.10
2019-05-18T10:44:17.984Z,34.80
2019-05-18T10:48:20.982Z,33.40
2019-05-18T10:52:24.079Z,33.50
2019-05-18T10:56:27.079Z,33.40
2019-05-18T11:00:30.174Z,33.90
2019-05-18T11:04:33.424Z,32.70
2019-05-18T11:08:38.509Z,33.40
2019-05-18T11:12:41.500Z,31.70
2019-05-18T11:16:46.958Z,30.70
2019-05-18T11:20:49.957Z,31.00
2019-05-18T11:24:52.963Z,30.80
2019-05-18T11:28:56.108Z,30.10
2019-05-18T11:32:59.176Z,29.80
2019-05-18T11:37:03.260Z,27.10
2019-05-18T11:41:06.398Z,26.00
2019-05-18T11:45:11.605Z,27.20
2019-05-18T11:49:14.743Z,27.80
2019-05-18T11:53:17.848Z,27.80
2019-05-18T11:57:20.859Z,29.50
2019-05-18T12:01:23.878Z,29.60
2019-05-18T12:05:26.898Z,29.90
2019-05-18T12:09:29.968Z,28.20
2019-05-18T12:13:32.970Z,28.30
2019-05-18T12:17:36.628Z,28.20
2019-05-18T12:21:39.638Z,28.20
2019-05-18T12:25:42.633Z,27.90
2019-05-18T12:29:45.652Z,27.30
2019-05-18T12:33:48.727Z,26.80
2019-05-18T12:37:51.730Z,26.70
2019-05-18T12:41:54.849Z,26.90
2019-05-18T12:45:57.848Z,27.70
2019-05-18T12:50:00.860Z,28.50
2019-05-18T12:54:03.855Z,28.10
2019-05-18T12:58:06.955Z,28.40
2019-05-18T13:02:09.954Z,28.00
2019-05-18T13:06:13.377Z,27.40
2019-05-18T13:10:17.353Z,27.00
2019-05-18T13:14:20.377Z,26.90
2019-05-18T13:18:24.293Z,27.60
2019-05-18T13:22:27.396Z,27.10
2019-05-18T13:26:30.500Z,26.70
2019-05-18T13:30:33.504Z,26.50
2019-05-18T13:34:36.499Z,26.70
2019-05-18T13:38:39.522Z,26.70
2019-05-18T13:42:42.529Z,26.70
2019-05-18T13:46:45.606Z,26.80
2019-05-18T13:50:48.697Z,26.40
2019-05-18T13:55:02.953Z,26.90
2019-05-18T13:58:56.662Z,27.30
2019-05-18T14:02:59.768Z,26.70
2019-05-18T14:07:02.988Z,27.40
2019-05-18T14:11:06.011Z,27.40
2019-05-18T14:15:12.451Z,27.50
2019-05-18T14:19:15.812Z,26.90
2019-05-18T14:23:18.798Z,26.00
2019-05-18T14:27:21.908Z,25.60
2019-05-18T14:31:24.994Z,25.60
2019-05-18T14:35:28.098Z,25.50
2019-05-18T14:39:31.220Z,25.10
2019-05-18T14:43:34.240Z,24.90
2019-05-18T14:47:37.381Z,25.10
2019-05-18T14:51:40.407Z,25.20
2019-05-18T14:55:43.429Z,25.40
2019-05-18T14:59:46.426Z,25.30
2019-05-18T15:03:49.468Z,25.20
2019-05-18T15:07:52.469Z,25.10
2019-05-18T15:11:55.476Z,25.10
2019-05-18T15:15:58.579Z,24.90
2019-05-18T15:20:05.418Z,24.70
2019-05-18T15:24:08.916Z,24.70
2019-05-18T15:28:12.130Z,24.80
2019-05-18T15:32:15.132Z,25.10
2019-05-18T15:36:18.236Z,24.90
2019-05-18T15:40:21.250Z,24.80
2019-05-18T15:44:24.257Z,24.70
2019-05-18T15:48:27.336Z,24.60
2019-05-18T15:52:30.516Z,24.40
2019-05-18T15:56:33.585Z,24.50
2019-05-18T16:00:36.702Z,24.50
2019-05-18T16:04:39.706Z,24.60
2019-05-18T16:08:42.707Z,24.70
2019-05-18T16:12:45.720Z,24.80
2019-05-18T16:16:48.751Z,24.90
2019-05-18T16:20:51.912Z,25.10
2019-05-18T16:24:54.912Z,25.40
2019-05-18T16:28:57.928Z,25.20
2019-05-18T16:33:00.944Z,25.10
2019-05-18T16:37:03.954Z,25.00
2019-05-18T16:41:06.960Z,24.80
2019-05-18T16:45:11.990Z,24.30
2019-05-18T16:49:15.015Z,22.90
2019-05-18T16:53:18.027Z,22.10
2019-05-18T16:57:21.028Z,21.90
2019-05-18T17:01:24.037Z,21.70
2019-05-18T17:05:27.090Z,21.60
2019-05-18T17:09:30.141Z,21.60
2019-05-18T17:13:33.219Z,21.40
2019-05-18T17:17:36.330Z,21.30
2019-05-18T17:21:40.181Z,21.10
2019-05-18T17:25:43.237Z,20.90
2019-05-18T17:29:46.336Z,20.90
2019-05-18T17:33:49.332Z,20.80
2019-05-18T17:37:52.344Z,20.80
2019-05-18T17:41:55.355Z,20.90
2019-05-18T17:45:58.516Z,20.80
2019-05-18T17:50:04.698Z,20.90
2019-05-18T17:54:07.702Z,20.90
2019-05-18T17:58:10.707Z,20.80
2019-05-18T18:02:13.712Z,20.70
2019-05-18T18:06:16.843Z,20.70
2019-05-18T18:10:20.400Z,20.60
2019-05-18T18:14:23.406Z,19.80
2019-05-18T18:18:26.819Z,19.00
2019-05-18T18:22:30.691Z,18.50
2019-05-18T18:26:33.735Z,18.30
2019-05-18T18:30:36.753Z,18.20
2019-05-18T18:34:39.743Z,17.80
2019-05-18T18:38:42.822Z,17.70
2019-05-18T18:42:45.887Z,17.50
2019-05-18T18:46:48.899Z,17.40
2019-05-18T18:50:51.894Z,17.60
2019-05-18T18:54:54.916Z,17.70
2019-05-18T18:58:57.929Z,17.70
2019-05-18T19:03:01.047Z,17.70
2019-05-18T19:07:04.227Z,17.80
2019-05-18T19:11:07.224Z,17.80
2019-05-18T19:15:10.619Z,17.50
2019-05-18T19:19:13.625Z,17.40
2019-05-18T19:23:19.035Z,17.40
2019-05-18T19:27:22.031Z,17.60
2019-05-18T19:31:25.065Z,17.60
2019-05-18T19:35:28.072Z,17.70
2019-05-18T19:39:31.108Z,17.50
2019-05-18T19:43:34.165Z,17.40
2019-05-18T19:47:37.173Z,17.20
2019-05-18T19:51:40.177Z,17.30
2019-05-18T19:55:43.171Z,17.40
2019-05-18T19:59:46.184Z,17.10
2019-05-18T20:03:49.179Z,17.20
2019-05-18T20:07:52.193Z,17.20
2019-05-18T20:11:55.201Z,17.30
2019-05-18T20:15:58.205Z,17.30
2019-05-18T20:20:02.026Z,17.30
2019-05-18T20:24:05.957Z,17.00
2019-05-18T20:28:22.675Z,17.00
2019-05-18T20:32:13.931Z,17.00
2019-05-18T20:36:16.939Z,16.80
2019-05-18T20:40:19.939Z,16.80
2019-05-18T20:44:22.935Z,16.80
2019-05-18T20:48:25.934Z,16.60
2019-05-18T20:52:28.932Z,16.50
2019-05-18T20:56:31.927Z,16.40
2019-05-18T21:00:38.162Z,16.30
2019-05-18T21:04:39.939Z,16.40
2019-05-18T21:08:42.931Z,16.50
2019-05-18T21:12:45.932Z,16.50
2019-05-18T21:16:48.936Z,16.50
2019-05-18T21:20:51.946Z,16.60
2019-05-18T21:24:55.748Z,16.60
2019-05-18T21:29:00.723Z,16.70
2019-05-18T21:33:03.734Z,16.40
2019-05-18T21:37:06.730Z,15.70
2019-05-18T21:41:09.731Z,15.40
2019-05-18T21:45:13.447Z,15.50
2019-05-18T21:49:16.447Z,15.70
2019-05-18T21:53:19.772Z,15.80
2019-05-18T21:57:22.783Z,15.80
2019-05-18T22:01:25.787Z,15.80
2019-05-18T22:05:28.798Z,16.00
2019-05-18T22:09:31.808Z,16.10
2019-05-18T22:13:34.817Z,16.00
2019-05-18T22:17:56.374Z,16.10
2019-05-18T22:21:59.370Z,15.90
2019-05-18T22:26:03.024Z,15.40
2019-05-18T22:30:06.230Z,15.30
2019-05-18T22:34:09.249Z,15.50
2019-05-18T22:38:12.259Z,15.80
2019-05-18T22:42:15.295Z,15.90
2019-05-18T22:46:18.471Z,16.00
2019-05-18T22:50:21.572Z,16.10
2019-05-18T22:54:24.641Z,16.10
2019-05-18T22:58:27.635Z,16.20
2019-05-18T23:02:30.675Z,16.20
2019-05-18T23:06:33.679Z,16.30
2019-05-18T23:10:36.671Z,16.30
2019-05-18T23:14:39.672Z,16.20
2019-05-18T23:18:56.023Z,16.20
2019-05-18T23:22:47.584Z,16.20
2019-05-18T23:26:52.080Z,16.10
2019-05-18T23:30:55.089Z,16.10
2019-05-18T23:34:58.104Z,16.20
2019-05-18T23:39:01.130Z,16.20
2019-05-18T23:43:04.239Z,16.10
2019-05-18T23:47:07.253Z,16.00
2019-05-18T23:51:10.280Z,15.80
2019-05-18T23:55:13.280Z,15.80
2019-05-18T23:59:16.325Z,15.80
